Time;durP1;ratioP1;P1;durP2;ratioP2;P2;SDS_P1;SDS_P2;PMS_P1;PMS_P2;Temp;Humidity;BMP_temperature;BMP_pressure;BME280_temperature;BME280_humidity;BME280_pressure;Samples;Min_cycle;Max_cycle;Signal;HPM_P1;HPM_P2
2021/01/28 00:02:42;;;;;;;;;;;;;;;8.35;45.54;100627.13;4971108;28;19914;-79
2021/01/28 00:05:28;;;;;;;;;;;;;;;8.42;52.12;100640.28;4968238;28;19913;-80
2021/01/28 00:08:15;;;;;;;;;;;;;;;8.54;57.05;100652.19;4976667;28;19913;-80
2021/01/28 00:11:00;;;;;;;;;;;;;;;8.54;57.67;100644.06;4967860;28;19914;-78
2021/01/28 00:13:44;;;;;;;;;;;;;;;8.62;55.94;100636.34;4962593;28;19914;-79
2021/01/28 00:16:29;;;;;;;;;;;;;;;8.68;57.14;100633.22;4967339;28;19918;-80
2021/01/28 00:19:13;;;;;;;;;;;;;;;8.65;56.21;100628.38;4984093;28;19914;-81
2021/01/28 00:21:59;;;;;;;;;;;;;;;8.56;49.87;100620.19;4980113;28;19914;-79
2021/01/28 00:24:43;;;;;;;;;;;;;;;8.40;48.91;100618.91;4979991;28;19914;-79
2021/01/28 00:27:27;;;;;;;;;;;;;;;8.36;51.70;100609.78;4980711;28;19921;-79
2021/01/28 00:30:14;;;;;;;;;;;;;;;8.14;44.98;100609.66;4972321;28;19914;-79
2021/01/28 00:32:59;;;;;;;;;;;;;;;8.10;46.58;100612.16;4978493;28;19914;-80
2021/01/28 00:35:45;;;;;;;;;;;;;;;8.22;42.39;100610.88;4994556;28;20384;-79
2021/01/28 00:38:31;;;;;;;;;;;;;;;7.99;42.91;100601.81;4982169;28;19913;-79
2021/01/28 00:41:16;;;;;;;;;;;;;;;8.13;42.15;100597.19;4980336;28;19913;-79
2021/01/28 00:44:00;;;;;;;;;;;;;;;8.19;43.20;100601.41;4966544;28;19913;-79
2021/01/28 00:46:45;;;;;;;;;;;;;;;8.28;44.56;100621.28;4968511;28;19917;-79
2021/01/28 00:49:29;;;;;;;;;;;;;;;8.17;44.85;100628.03;4966641;28;19913;-78
2021/01/28 00:52:14;;;;;;;;;;;;;;;7.94;42.64;100627.09;4977670;28;20300;-79
2021/01/28 00:54:59;;;;;;;;;;;;;;;7.94;43.72;100616.25;4979939;28;19914;-79
2021/01/28 00:57:44;;;;;;;;;;;;;;;7.58;43.68;100635.06;4970067;28;19933;-79
2021/01/28 01:00:31;;;;;;;;;;;;;;;7.67;44.45;100621.63;4983726;28;20327;-80
2021/01/28 01:03:17;;;;;;;;;;;;;;;7.49;42.52;100620.59;4981936;28;19918;-79
2021/01/28 01:06:02;;;;;;;;;;;;;;;7.76;46.53;100629.88;4980033;28;19918;-78
2021/01/28 01:08:49;;;;;;;;;;;;;;;7.66;42.57;100636.28;4983502;28;19914;-79
2021/01/28 01:11:40;;;;;;;;;;;;;;;7.72;44.81;100640.47;4980829;28;19914;-80
2021/01/28 01:14:25;;;;;;;;;;;;;;;7.89;47.67;100637.22;4969791;28;19914;-79
2021/01/28 01:17:10;;;;;;;;;;;;;;;7.68;43.07;100632.16;4963905;28;19914;-79
2021/01/28 01:20:00;;;;;;;;;;;;;;;7.54;43.98;100631.34;4962394;28;19913;-79
2021/01/28 01:22:56;;;;;;;;;;;;;;;7.61;43.80;100633.66;4963642;28;19914;-78
2021/01/28 01:25:42;;;;;;;;;;;;;;;7.31;43.05;100629.56;4993612;28;19913;-79
2021/01/28 01:28:27;;;;;;;;;;;;;;;7.36;43.77;100620.56;4981700;28;19914;-78
2021/01/28 01:31:16;;;;;;;;;;;;;;;7.51;43.67;100607.59;4982832;28;19913;-78
2021/01/28 01:34:01;;;;;;;;;;;;;;;7.59;45.07;100609.59;4972768;28;19913;-79
2021/01/28 01:36:49;;;;;;;;;;;;;;;7.83;51.62;100609.44;4984074;28;19914;-78
2021/01/28 01:39:34;;;;;;;;;;;;;;;7.78;47.85;100608.72;4967420;28;19914;-79
2021/01/28 01:42:19;;;;;;;;;;;;;;;8.07;56.01;100609.25;4980631;28;20319;-80
2021/01/28 01:45:06;;;;;;;;;;;;;;;8.08;55.32;100610.84;4970421;28;19922;-78
2021/01/28 01:47:55;;;;;;;;;;;;;;;8.01;52.69;100605.03;4982574;28;19918;-79
2021/01/28 01:50:56;;;;;;;;;;;;;;;7.84;47.26;100607.53;4985604;28;19914;-78
2021/01/28 01:53:53;;;;;;;;;;;;;;;7.78;46.14;100619.53;4983023;28;20287;-78
2021/01/28 01:56:47;;;;;;;;;;;;;;;7.63;45.69;100616.03;4964654;28;20285;-78
2021/01/28 01:59:41;;;;;;;;;;;;;;;7.53;45.64;100609.97;4962172;28;19913;-80
2021/01/28 02:02:50;;;;;;;;;;;;;;;7.31;46.20;100607.94;4990478;28;19918;-80
2021/01/28 02:05:59;;;;;;;;;;;;;;;7.43;46.44;100619.06;4990035;28;19918;-82
2021/01/28 02:09:05;;;;;;;;;;;;;;;7.26;45.21;100613.44;4967785;28;19918;-81
2021/01/28 02:12:11;;;;;;;;;;;;;;;7.18;44.51;100609.47;4989133;28;19914;-82
2021/01/28 02:15:24;;;;;;;;;;;;;;;7.55;51.09;100624.03;4991454;28;19914;-80
2021/01/28 02:18:09;;;;;;;;;;;;;;;7.34;48.33;100620.06;4990655;28;19913;-82
2021/01/28 02:21:33;;;;;;;;;;;;;;;7.72;55.04;100635.88;4992382;28;19918;-81
2021/01/28 02:24:31;;;;;;;;;;;;;;;7.57;50.31;100633.44;4997928;28;19913;-81
2021/01/28 02:27:18;;;;;;;;;;;;;;;7.57;48.66;100617.19;4991510;28;19918;-79
2021/01/28 02:30:36;;;;;;;;;;;;;;;7.54;48.29;100612.41;4995048;28;20288;-78
2021/01/28 02:33:39;;;;;;;;;;;;;;;7.74;53.71;100606.63;4984481;28;19914;-80
2021/01/28 02:36:46;;;;;;;;;;;;;;;7.66;49.92;100620.84;4976397;28;20283;-81
2021/01/28 02:40:07;;;;;;;;;;;;;;;7.60;49.39;100624.75;4970068;28;19913;-79
2021/01/28 02:43:10;;;;;;;;;;;;;;;7.65;49.03;100632.78;4999085;28;19914;-78
2021/01/28 02:46:21;;;;;;;;;;;;;;;7.44;46.24;100628.81;4976627;28;20291;-82
2021/01/28 02:49:10;;;;;;;;;;;;;;;7.48;45.59;100621.69;4986743;28;20372;-79
2021/01/28 02:52:03;;;;;;;;;;;;;;;7.56;47.38;100626.44;4976511;28;19913;-79
2021/01/28 02:54:53;;;;;;;;;;;;;;;7.51;47.16;100614.91;4972852;28;19917;-79
2021/01/28 02:57:38;;;;;;;;;;;;;;;7.16;45.41;100600.06;5001636;28;19913;-80
2021/01/28 03:00:27;;;;;;;;;;;;;;;7.16;45.77;100590.03;4989926;28;19914;-81
2021/01/28 03:03:13;;;;;;;;;;;;;;;7.30;46.87;100590.91;4967359;28;19918;-82
2021/01/28 03:06:05;;;;;;;;;;;;;;;7.49;52.10;100587.34;4953609;28;19918;-80
2021/01/28 03:08:49;;;;;;;;;;;;;;;7.54;52.58;100596.16;4963846;28;20384;-79
2021/01/28 03:11:51;;;;;;;;;;;;;;;7.86;61.92;100608.03;4974836;28;19914;-78
2021/01/28 03:14:51;;;;;;;;;;;;;;;7.67;56.31;100600.78;4970970;28;19914;-82
2021/01/28 03:17:35;;;;;;;;;;;;;;;7.80;57.58;100609.22;4980734;28;19914;-78
2021/01/28 03:20:24;;;;;;;;;;;;;;;7.84;58.04;100604.81;4985410;28;19914;-80
2021/01/28 03:23:11;;;;;;;;;;;;;;;7.92;61.01;100596.03;4981251;28;19913;-82
2021/01/28 03:26:16;;;;;;;;;;;;;;;7.93;59.55;100603.03;4979731;28;19921;-79
2021/01/28 03:29:04;;;;;;;;;;;;;;;7.98;62.63;100602.91;4987371;28;19913;-79
2021/01/28 03:31:48;;;;;;;;;;;;;;;7.93;59.81;100603.03;4973255;28;19917;-77
2021/01/28 03:34:37;;;;;;;;;;;;;;;7.77;52.84;100596.31;4952661;28;19914;-78
2021/01/28 03:37:23;;;;;;;;;;;;;;;7.83;56.61;100600.50;4959139;28;19914;-78
2021/01/28 03:40:14;;;;;;;;;;;;;;;7.80;55.11;100606.53;4961606;28;20372;-79
2021/01/28 03:43:00;;;;;;;;;;;;;;;7.77;54.78;100604.44;4955935;28;19914;-79
2021/01/28 03:45:45;;;;;;;;;;;;;;;7.78;55.81;100606.81;4962997;28;19914;-81
2021/01/28 03:48:30;;;;;;;;;;;;;;;7.60;50.54;100594.97;4975189;28;19918;-81
2021/01/28 03:51:43;;;;;;;;;;;;;;;7.56;48.85;100585.84;4987291;28;19914;-80
2021/01/28 03:54:53;;;;;;;;;;;;;;;7.73;56.88;100591.47;4999585;28;19913;-79
2021/01/28 03:58:07;;;;;;;;;;;;;;;7.49;50.37;100577.31;5013159;28;19914;-80
2021/01/28 04:00:52;;;;;;;;;;;;;;;7.45;50.60;100581.72;5001309;28;19913;-80
2021/01/28 04:03:38;;;;;;;;;;;;;;;7.50;49.78;100573.53;4965183;28;20451;-80
2021/01/28 04:06:41;;;;;;;;;;;;;;;7.39;48.95;100582.09;4969036;28;19917;-79
2021/01/28 04:09:30;;;;;;;;;;;;;;;7.36;47.07;100569.19;4967109;28;19914;-78
2021/01/28 04:12:37;;;;;;;;;;;;;;;7.45;47.13;100567.38;4992485;28;19914;-81
2021/01/28 04:15:30;;;;;;;;;;;;;;;7.37;44.86;100557.25;4967876;28;19922;-79
2021/01/28 04:18:19;;;;;;;;;;;;;;;7.22;45.89;100561.00;5019488;22;19925;-79
2021/01/28 04:21:07;;;;;;;;;;;;;;;7.18;45.79;100562.72;4990050;28;19922;-79
2021/01/28 04:23:53;;;;;;;;;;;;;;;7.10;47.93;100572.31;4987471;28;20287;-80
2021/01/28 04:26:47;;;;;;;;;;;;;;;6.88;47.42;100570.22;5006577;28;19917;-80
2021/01/28 04:29:34;;;;;;;;;;;;;;;6.96;47.23;100573.38;5027449;28;19913;-79
2021/01/28 04:32:27;;;;;;;;;;;;;;;7.08;45.53;100571.00;5027012;28;19913;-80
2021/01/28 04:35:30;;;;;;;;;;;;;;;7.10;45.04;100566.09;5038490;28;19920;-79
2021/01/28 04:38:15;;;;;;;;;;;;;;;7.19;45.66;100567.84;5005671;28;19917;-79
2021/01/28 04:41:06;;;;;;;;;;;;;;;7.06;44.48;100551.56;5003897;28;19913;-79
2021/01/28 04:43:53;;;;;;;;;;;;;;;7.02;43.97;100553.25;5015888;28;19913;-79
2021/01/28 04:46:56;;;;;;;;;;;;;;;7.09;45.11;100551.78;4986747;28;19918;-81
2021/01/28 04:50:02;;;;;;;;;;;;;;;6.90;44.09;100548.31;4984037;28;20288;-80
2021/01/28 04:52:51;;;;;;;;;;;;;;;6.79;43.98;100547.66;5005293;28;19913;-79
2021/01/28 04:55:44;;;;;;;;;;;;;;;6.79;45.80;100558.47;5005839;28;19936;-78
2021/01/28 04:58:30;;;;;;;;;;;;;;;6.65;46.01;100551.41;5015727;28;19913;-80
2021/01/28 05:01:30;;;;;;;;;;;;;;;6.56;46.20;100550.44;5011691;28;19921;-80
2021/01/28 05:04:53;;;;;;;;;;;;;;;6.72;45.38;100547.22;4995867;28;20447;-80
2021/01/28 05:08:01;;;;;;;;;;;;;;;6.73;45.80;100548.03;4990557;28;19918;-79
2021/01/28 05:11:18;;;;;;;;;;;;;;;6.50;45.10;100554.31;5010685;28;19917;-80
2021/01/28 05:14:19;;;;;;;;;;;;;;;6.42;43.92;100558.47;4989558;28;19917;-79
2021/01/28 05:17:28;;;;;;;;;;;;;;;6.66;46.25;100575.41;5039339;28;19913;-80
2021/01/28 05:20:32;;;;;;;;;;;;;;;6.65;46.15;100579.22;5041689;28;19913;-79
2021/01/28 05:23:32;;;;;;;;;;;;;;;6.68;46.85;100575.94;5012536;28;19913;-79
2021/01/28 05:26:26;;;;;;;;;;;;;;;6.90;50.88;100575.34;4998649;28;19921;-80
2021/01/28 05:29:19;;;;;;;;;;;;;;;7.01;54.84;100581.41;4994716;28;19913;-79
2021/01/28 05:32:32;;;;;;;;;;;;;;;7.04;53.54;100573.50;5025592;28;19913;-79
2021/01/28 05:35:43;;;;;;;;;;;;;;;6.87;46.73;100574.00;4995918;28;19913;-79
2021/01/28 05:38:42;;;;;;;;;;;;;;;6.75;48.30;100587.19;5006322;28;19913;-80
2021/01/28 05:41:41;;;;;;;;;;;;;;;6.92;52.81;100585.84;5007039;28;19917;-80
2021/01/28 05:44:30;;;;;;;;;;;;;;;7.04;55.38;100588.91;5001992;28;19913;-80
2021/01/28 05:47:29;;;;;;;;;;;;;;;7.02;52.99;100593.78;5007476;28;19917;-79
2021/01/28 05:50:39;;;;;;;;;;;;;;;6.88;47.76;100594.53;5003847;28;19914;-81
2021/01/28 05:53:32;;;;;;;;;;;;;;;6.91;48.72;100600.47;4990450;28;19913;-80
2021/01/28 05:56:17;;;;;;;;;;;;;;;6.80;47.71;100589.00;4994711;28;19913;-80
2021/01/28 05:59:12;;;;;;;;;;;;;;;6.85;47.25;100595.16;5019213;28;19935;-80
2021/01/28 06:02:19;;;;;;;;;;;;;;;6.75;45.57;100583.69;4997336;28;19914;-80
2021/01/28 06:05:54;;;;;;;;;;;;;;;6.49;46.31;100577.03;5015439;28;19913;-80
2021/01/28 06:09:00;;;;;;;;;;;;;;;6.25;45.69;100574.34;4985536;28;20360;-79
2021/01/28 06:12:04;;;;;;;;;;;;;;;6.26;48.19;100570.56;5006865;28;19913;-80
2021/01/28 06:14:54;;;;;;;;;;;;;;;5.93;47.79;100583.94;5004144;28;19913;-79
2021/01/28 06:18:20;;;;;;;;;;;;;;;5.95;46.61;100580.94;5008011;28;19913;-79
2021/01/28 06:21:56;;;;;;;;;;;;;;;5.70;46.21;100581.19;5011620;28;19913;-81
2021/01/28 06:25:03;;;;;;;;;;;;;;;5.42;48.05;100580.13;4997212;28;19914;-82
2021/01/28 06:28:05;;;;;;;;;;;;;;;5.37;47.11;100580.97;5008212;28;20338;-80
2021/01/28 06:30:51;;;;;;;;;;;;;;;5.45;47.10;100577.66;5023298;28;19912;-81
2021/01/28 06:34:07;;;;;;;;;;;;;;;5.59;47.84;100573.19;5035492;28;19916;-81
2021/01/28 06:37:15;;;;;;;;;;;;;;;5.79;49.64;100574.88;5009620;28;19913;-81
2021/01/28 06:40:19;;;;;;;;;;;;;;;6.06;53.50;100587.00;5004718;28;19913;-81
2021/01/28 06:43:41;;;;;;;;;;;;;;;6.19;51.09;100595.25;5014271;28;19913;-81
2021/01/28 06:47:05;;;;;;;;;;;;;;;6.38;51.53;100620.38;5006249;28;19917;-81
2021/01/28 06:50:16;;;;;;;;;;;;;;;6.31;47.84;100611.00;5008753;28;19913;-82
2021/01/28 06:53:20;;;;;;;;;;;;;;;6.13;47.02;100625.28;4990693;28;19917;-81
2021/01/28 06:56:32;;;;;;;;;;;;;;;6.29;49.89;100634.81;5006503;28;20395;-80
2021/01/28 06:59:45;;;;;;;;;;;;;;;6.43;50.31;100631.13;4996711;28;19913;-80
2021/01/28 07:02:50;;;;;;;;;;;;;;;6.55;53.97;100643.41;4992189;28;19913;-80
2021/01/28 07:05:51;;;;;;;;;;;;;;;6.70;59.01;100630.50;5008417;28;19913;-80
2021/01/28 07:08:45;;;;;;;;;;;;;;;5.11;46.67;100620.00;5003341;28;19917;-80
2021/01/28 07:11:53;;;;;;;;;;;;;;;3.37;48.81;100602.16;5016988;28;19917;-80
2021/01/28 07:14:57;;;;;;;;;;;;;;;1.79;53.20;100606.59;4993597;28;19913;-80
2021/01/28 07:18:05;;;;;;;;;;;;;;;1.83;53.25;100608.50;5016923;28;20292;-81
2021/01/28 07:21:21;;;;;;;;;;;;;;;2.05;53.44;100589.59;5001142;28;19913;-80
2021/01/28 07:24:27;;;;;;;;;;;;;;;1.65;54.57;100566.88;4968495;28;19913;-80
2021/01/28 07:27:12;;;;;;;;;;;;;;;1.90;53.96;100549.28;4998370;28;19917;-79
2021/01/28 07:29:56;;;;;;;;;;;;;;;2.34;53.29;100547.81;4984871;28;19914;-80
2021/01/28 07:32:41;;;;;;;;;;;;;;;2.31;52.94;100556.41;4995781;28;19913;-80
2021/01/28 07:35:53;;;;;;;;;;;;;;;2.56;52.95;100567.22;4987534;28;19914;-80
2021/01/28 07:38:47;;;;;;;;;;;;;;;2.59;52.46;100572.03;4981807;28;19913;-80
2021/01/28 07:42:10;;;;;;;;;;;;;;;2.80;52.69;100580.94;4999731;28;19917;-80
2021/01/28 07:45:35;;;;;;;;;;;;;;;2.86;53.50;100593.28;4963963;28;19913;-79
2021/01/28 07:48:40;;;;;;;;;;;;;;;2.81;53.33;100603.22;4997350;28;19918;-80
2021/01/28 07:52:03;;;;;;;;;;;;;;;2.77;53.49;100612.88;4991069;28;20300;-80
2021/01/28 07:54:48;;;;;;;;;;;;;;;2.54;54.04;100611.47;4970303;28;19914;-81
2021/01/28 07:57:43;;;;;;;;;;;;;;;2.74;53.28;100616.09;5002384;28;19922;-79
2021/01/28 08:00:30;;;;;;;;;;;;;;;2.70;53.49;100625.75;5010737;28;20295;-80
2021/01/28 08:03:22;;;;;;;;;;;;;;;2.72;53.30;100632.47;4980505;28;20047;-79
2021/01/28 08:06:10;;;;;;;;;;;;;;;3.10;53.60;100633.06;5004099;28;20311;-80
2021/01/28 08:09:14;;;;;;;;;;;;;;;2.45;55.80;100640.69;4995539;28;19925;-79
2021/01/28 08:11:59;;;;;;;;;;;;;;;2.73;54.36;100627.91;4982735;28;19913;-79
2021/01/28 08:14:44;;;;;;;;;;;;;;;2.56;55.23;100628.94;4998007;28;19914;-79
2021/01/28 08:17:30;;;;;;;;;;;;;;;2.55;54.67;100619.28;4999707;28;19913;-81
2021/01/28 08:20:20;;;;;;;;;;;;;;;2.75;53.80;100615.00;5002813;28;20303;-81
2021/01/28 08:23:13;;;;;;;;;;;;;;;2.96;53.36;100622.84;4989322;28;20322;-80
2021/01/28 08:26:00;;;;;;;;;;;;;;;3.08;53.29;100625.28;5004173;28;19913;-80
2021/01/28 08:28:45;;;;;;;;;;;;;;;2.99;53.21;100621.50;5001453;28;19917;-80
2021/01/28 08:31:41;;;;;;;;;;;;;;;3.30;52.95;100615.06;5003678;28;19913;-80
2021/01/28 08:34:27;;;;;;;;;;;;;;;3.39;51.62;100623.41;5003546;28;19917;-80
2021/01/28 08:37:15;;;;;;;;;;;;;;;3.46;50.85;100623.91;4987848;28;19913;-83
2021/01/28 08:40:00;;;;;;;;;;;;;;;3.30;50.97;100617.75;4994117;28;20284;-83
2021/01/28 08:42:45;;;;;;;;;;;;;;;3.85;50.44;100629.53;4992371;28;19913;-84
2021/01/28 08:45:30;;;;;;;;;;;;;;;3.85;48.33;100624.13;5018352;28;19913;-83
2021/01/28 08:48:23;;;;;;;;;;;;;;;3.56;50.04;100626.59;5003147;28;19918;-83
2021/01/28 08:51:10;;;;;;;;;;;;;;;3.91;49.14;100631.13;5003497;28;19914;-83
2021/01/28 08:53:57;;;;;;;;;;;;;;;4.01;48.01;100616.84;5030220;28;19913;-82
2021/01/28 08:56:42;;;;;;;;;;;;;;;3.61;48.84;100604.25;5003037;28;19913;-83
2021/01/28 08:59:32;;;;;;;;;;;;;;;3.45;52.45;100598.91;5018665;28;19913;-83
2021/01/28 09:02:22;;;;;;;;;;;;;;;3.48;53.02;100607.53;5003484;28;19913;-83
2021/01/28 09:05:22;;;;;;;;;;;;;;;3.52;51.80;100603.22;5016662;28;19914;-83
2021/01/28 09:08:21;;;;;;;;;;;;;;;3.75;51.82;100600.78;4990661;28;19918;-87
2021/01/28 09:11:25;;;;;;;;;;;;;;;3.75;50.53;100608.03;4996441;28;19918;-86
2021/01/28 09:14:28;;;;;;;;;;;;;;;3.86;50.07;100614.97;4992155;28;19913;-85
2021/01/28 09:17:17;;;;;;;;;;;;;;;3.79;50.31;100614.47;4995758;28;19913;-85
2021/01/28 09:20:03;;;;;;;;;;;;;;;3.80;50.74;100621.47;5007310;28;20291;-84
2021/01/28 09:22:48;;;;;;;;;;;;;;;3.83;50.54;100643.22;5017400;28;19913;-82
2021/01/28 09:25:34;;;;;;;;;;;;;;;3.82;50.19;100638.13;5009273;28;19913;-83
2021/01/28 09:28:19;;;;;;;;;;;;;;;3.99;50.11;100643.19;5014418;28;19917;-83
2021/01/28 09:31:18;;;;;;;;;;;;;;;4.21;49.64;100636.41;5020682;28;19913;-83
2021/01/28 09:34:14;;;;;;;;;;;;;;;4.04;48.93;100627.03;4994854;28;19914;-83
2021/01/28 09:37:03;;;;;;;;;;;;;;;4.38;49.67;100643.31;5004643;28;20296;-83
2021/01/28 09:39:51;;;;;;;;;;;;;;;4.76;47.66;100622.94;5022784;28;19913;-83
2021/01/28 09:42:36;;;;;;;;;;;;;;;4.92;49.44;100625.28;5026974;28;19918;-84
2021/01/28 09:45:23;;;;;;;;;;;;;;;5.25;48.45;100626.34;5021104;28;20415;-83
2021/01/28 09:48:08;;;;;;;;;;;;;;;5.52;47.13;100632.06;5007705;28;19921;-83
2021/01/28 09:50:52;;;;;;;;;;;;;;;5.47;45.89;100612.44;4996217;28;19914;-83
2021/01/28 09:53:38;;;;;;;;;;;;;;;5.63;46.69;100616.59;5009387;28;20304;-83
2021/01/28 09:56:22;;;;;;;;;;;;;;;5.60;45.63;100619.84;4994304;28;19917;-83
2021/01/28 09:59:06;;;;;;;;;;;;;;;5.04;47.60;100612.22;5011963;28;19913;-83
2021/01/28 10:01:51;;;;;;;;;;;;;;;4.92;48.03;100617.19;5010227;28;19913;-83
2021/01/28 10:04:36;;;;;;;;;;;;;;;4.99;47.66;100606.06;5009286;28;19913;-83
2021/01/28 10:07:22;;;;;;;;;;;;;;;4.42;49.31;100602.09;5012800;28;19921;-83
2021/01/28 10:10:07;;;;;;;;;;;;;;;4.64;49.21;100602.53;5018846;28;19921;-79
2021/01/28 10:12:53;;;;;;;;;;;;;;;4.47;49.74;100604.00;5024166;28;19913;-83
2021/01/28 10:15:38;;;;;;;;;;;;;;;3.87;52.54;100611.22;5009478;28;19913;-81
2021/01/28 10:32:57;;;;;;;;;;;;;;;5.47;48.38;100572.78;5010953;28;19921;-83
2021/01/28 10:35:42;;;;;;;;;;;;;;;5.69;46.96;100576.91;5009176;28;19917;-81
2021/01/28 10:38:27;;;;;;;;;;;;;;;5.60;46.99;100574.00;5018733;28;20303;-83
2021/01/28 10:41:12;;;;;;;;;;;;;;;5.58;47.40;100577.00;5009516;28;19912;-83
2021/01/28 10:43:57;;;;;;;;;;;;;;;6.14;45.43;100572.91;5007393;28;19912;-83
2021/01/28 10:46:42;;;;;;;;;;;;;;;6.20;46.01;100567.13;5033647;28;19916;-84
2021/01/28 10:49:26;;;;;;;;;;;;;;;5.86;47.09;100556.44;4995284;28;19917;-83
2021/01/28 10:52:11;;;;;;;;;;;;;;;6.30;45.79;100547.28;4993448;28;19914;-84
2021/01/28 10:54:55;;;;;;;;;;;;;;;6.23;45.86;100538.75;5014776;28;19913;-83
2021/01/28 10:57:39;;;;;;;;;;;;;;;6.04;45.79;100530.66;4999655;28;19913;-83
2021/01/28 11:00:24;;;;;;;;;;;;;;;5.57;46.54;100523.34;4980700;28;19913;-83
2021/01/28 11:03:09;;;;;;;;;;;;;;;5.84;44.81;100515.44;4999254;28;19913;-83
2021/01/28 11:05:53;;;;;;;;;;;;;;;5.65;46.44;100521.88;5014340;28;20379;-84
2021/01/28 11:08:38;;;;;;;;;;;;;;;5.82;44.03;100520.34;4988332;28;20296;-84
2021/01/28 11:11:22;;;;;;;;;;;;;;;5.72;44.04;100533.97;5000969;28;19917;-83
2021/01/28 11:14:07;;;;;;;;;;;;;;;5.82;42.95;100527.63;4999199;28;19917;-80
2021/01/28 11:16:52;;;;;;;;;;;;;;;5.98;43.57;100505.63;5003100;28;19913;-82
2021/01/28 11:19:36;;;;;;;;;;;;;;;6.39;43.53;100515.84;4985914;28;19914;-83
2021/01/28 11:22:20;;;;;;;;;;;;;;;6.06;45.78;100496.06;4998743;28;20312;-83
2021/01/28 11:25:06;;;;;;;;;;;;;;;7.11;44.51;100475.78;5014505;28;19913;-84
2021/01/28 11:27:52;;;;;;;;;;;;;;;7.01;42.79;100478.66;5013524;28;19917;-83
2021/01/28 11:30:37;;;;;;;;;;;;;;;7.08;42.10;100482.56;4981755;28;20327;-83
2021/01/28 11:33:22;;;;;;;;;;;;;;;6.51;42.77;100485.69;4981896;28;20492;-82
2021/01/28 11:36:06;;;;;;;;;;;;;;;6.45;43.80;100490.34;4984530;28;19914;-83
2021/01/28 11:38:50;;;;;;;;;;;;;;;6.72;43.46;100489.69;4986945;28;19918;-82
2021/01/28 11:41:35;;;;;;;;;;;;;;;7.39;41.64;100493.63;4994072;28;20299;-83
2021/01/28 11:44:19;;;;;;;;;;;;;;;7.48;41.56;100499.16;4981876;28;19914;-82
2021/01/28 11:47:04;;;;;;;;;;;;;;;7.05;42.36;100485.09;4981497;28;19913;-83
2021/01/28 11:49:48;;;;;;;;;;;;;;;7.45;40.81;100487.03;4995145;28;20419;-83
2021/01/28 11:52:33;;;;;;;;;;;;;;;7.57;40.04;100497.34;5012354;28;19914;-83
2021/01/28 11:55:20;;;;;;;;;;;;;;;7.89;39.53;100505.38;4999378;28;19914;-83
2021/01/28 11:58:04;;;;;;;;;;;;;;;7.18;41.94;100505.94;4989022;28;19913;-83
2021/01/28 12:00:49;;;;;;;;;;;;;;;7.84;39.73;100518.19;5000599;28;19913;-83
2021/01/28 12:03:33;;;;;;;;;;;;;;;8.12;39.99;100514.38;4999039;28;19914;-83
2021/01/28 12:06:18;;;;;;;;;;;;;;;7.67;40.97;100514.19;5002759;28;19913;-83
2021/01/28 12:09:04;;;;;;;;;;;;;;;8.04;39.84;100505.03;4986081;28;19917;-84
2021/01/28 12:11:48;;;;;;;;;;;;;;;8.03;40.71;100510.75;4999283;28;19913;-82
2021/01/28 12:14:33;;;;;;;;;;;;;;;8.53;39.24;100498.06;4989445;28;19913;-83
2021/01/28 12:17:17;;;;;;;;;;;;;;;7.71;40.93;100477.31;5001042;28;19913;-82
2021/01/28 12:20:02;;;;;;;;;;;;;;;8.03;40.20;100462.03;4993967;28;19921;-84
2021/01/28 12:22:47;;;;;;;;;;;;;;;8.26;39.19;100435.78;4972494;28;19917;-82
2021/01/28 12:25:31;;;;;;;;;;;;;;;8.47;39.70;100432.34;4968404;28;20295;-82
2021/01/28 12:28:15;;;;;;;;;;;;;;;8.18;39.84;100418.34;4978029;28;19917;-82
2021/01/28 12:31:00;;;;;;;;;;;;;;;7.71;41.28;100388.03;4974918;28;19921;-82
2021/01/28 12:33:44;;;;;;;;;;;;;;;7.78;42.16;100382.16;5002922;28;19913;-83
2021/01/28 12:36:29;;;;;;;;;;;;;;;8.10;39.70;100381.19;4978468;28;19913;-81
2021/01/28 12:39:14;;;;;;;;;;;;;;;8.44;39.81;100386.88;4998096;28;19913;-82
2021/01/28 12:41:59;;;;;;;;;;;;;;;7.71;39.96;100381.81;4994468;28;19914;-82
2021/01/28 12:44:44;;;;;;;;;;;;;;;7.72;41.51;100383.38;4999078;28;19914;-83
2021/01/28 12:47:28;;;;;;;;;;;;;;;7.80;41.87;100376.47;4978502;28;20373;-85
2021/01/28 12:50:15;;;;;;;;;;;;;;;7.80;42.26;100385.38;4983012;28;19913;-84
2021/01/28 12:52:59;;;;;;;;;;;;;;;7.82;41.39;100396.72;4981269;28;19914;-83
2021/01/28 12:55:44;;;;;;;;;;;;;;;7.77;41.84;100409.56;4965911;28;19913;-86
2021/01/28 12:58:28;;;;;;;;;;;;;;;7.15;42.29;100420.81;4984217;28;19914;-85
2021/01/28 13:01:12;;;;;;;;;;;;;;;7.23;42.86;100422.81;4977892;28;20373;-85
2021/01/28 13:03:56;;;;;;;;;;;;;;;7.76;42.15;100411.47;4992273;28;19914;-85
2021/01/28 13:06:41;;;;;;;;;;;;;;;8.37;40.64;100413.63;4978043;28;19918;-83
2021/01/28 13:09:26;;;;;;;;;;;;;;;9.29;37.26;100410.13;4978646;28;20380;-85
2021/01/28 13:12:11;;;;;;;;;;;;;;;8.98;37.21;100393.88;4981289;28;20391;-84
2021/01/28 13:14:56;;;;;;;;;;;;;;;7.96;40.12;100380.44;4973255;28;19914;-84
2021/01/28 13:17:40;;;;;;;;;;;;;;;8.28;39.71;100401.84;4981742;28;19939;-85
2021/01/28 13:20:26;;;;;;;;;;;;;;;8.71;38.63;100380.50;4983394;28;19914;-85
2021/01/28 13:23:13;;;;;;;;;;;;;;;9.14;37.13;100382.63;4967979;28;19913;-85
2021/01/28 13:25:57;;;;;;;;;;;;;;;9.44;37.06;100363.56;4985296;28;19914;-85
2021/01/28 13:28:42;;;;;;;;;;;;;;;10.70;34.58;100349.78;4983557;28;19918;-84
2021/01/28 13:31:26;;;;;;;;;;;;;;;12.08;32.83;100351.75;4981266;28;20380;-85
2021/01/28 13:34:12;;;;;;;;;;;;;;;11.48;34.00;100348.28;4971726;28;19917;-85
2021/01/28 13:36:56;;;;;;;;;;;;;;;11.53;32.94;100364.44;4983639;28;19914;-83
2021/01/28 13:39:40;;;;;;;;;;;;;;;11.88;33.01;100380.59;4968015;28;19913;-83
2021/01/28 13:42:26;;;;;;;;;;;;;;;12.20;32.10;100371.66;4971569;28;19914;-83
2021/01/28 13:45:11;;;;;;;;;;;;;;;10.79;33.88;100361.44;4983946;28;19914;-82
2021/01/28 13:47:56;;;;;;;;;;;;;;;9.87;36.35;100358.19;4968223;28;19917;-83
2021/01/28 13:50:41;;;;;;;;;;;;;;;10.80;34.72;100365.75;4972024;28;19913;-83
2021/01/28 13:53:25;;;;;;;;;;;;;;;11.51;32.84;100360.47;4981261;28;19914;-83
2021/01/28 13:56:12;;;;;;;;;;;;;;;11.54;33.08;100365.25;4981408;28;19918;-82
2021/01/28 13:58:58;;;;;;;;;;;;;;;12.03;32.14;100369.09;4969591;28;19914;-83
2021/01/28 14:01:42;;;;;;;;;;;;;;;13.66;28.85;100375.41;4983620;28;19913;-82
2021/01/28 14:04:27;;;;;;;;;;;;;;;14.32;26.65;100361.34;4982129;28;19993;-82
2021/01/28 14:07:11;;;;;;;;;;;;;;;15.31;25.45;100363.94;4980634;28;19917;-83
2021/01/28 14:09:55;;;;;;;;;;;;;;;15.32;25.21;100351.81;4983804;28;19918;-83
2021/01/28 14:12:41;;;;;;;;;;;;;;;14.01;28.23;100358.50;4968363;28;20166;-85
2021/01/28 14:15:26;;;;;;;;;;;;;;;16.03;24.32;100378.09;4981023;28;19914;-85
2021/01/28 14:18:15;;;;;;;;;;;;;;;15.80;24.48;100352.53;4973635;28;19925;-83
2021/01/28 14:21:00;;;;;;;;;;;;;;;16.48;23.71;100343.72;4971752;28;19914;-83
2021/01/28 14:23:45;;;;;;;;;;;;;;;16.77;21.83;100353.28;4983014;28;20380;-79
2021/01/28 14:26:29;;;;;;;;;;;;;;;18.32;21.10;100346.56;4973292;28;19913;-82
2021/01/28 14:29:14;;;;;;;;;;;;;;;17.26;20.87;100334.91;4984185;28;19917;-83
2021/01/28 14:31:59;;;;;;;;;;;;;;;18.11;20.38;100335.28;4968736;28;20120;-83
2021/01/28 14:34:43;;;;;;;;;;;;;;;16.97;21.03;100328.13;4971119;28;19913;-82
2021/01/28 14:37:28;;;;;;;;;;;;;;;15.06;22.57;100332.41;4982456;28;19913;-83
2021/01/28 14:40:12;;;;;;;;;;;;;;;13.45;25.03;100320.16;4966776;28;19922;-83
2021/01/28 14:42:57;;;;;;;;;;;;;;;13.84;25.56;100323.25;4984401;28;19914;-83
2021/01/28 14:45:43;;;;;;;;;;;;;;;13.28;25.69;100334.03;4990816;28;19914;-82
2021/01/28 14:48:27;;;;;;;;;;;;;;;15.95;23.28;100332.47;4975419;28;19918;-81
2021/01/28 14:51:13;;;;;;;;;;;;;;;14.24;24.59;100321.25;4999680;28;19913;-83
2021/01/28 14:53:57;;;;;;;;;;;;;;;14.36;24.17;100326.72;5029382;28;19913;-82
2021/01/28 14:56:44;;;;;;;;;;;;;;;13.28;26.00;100328.59;4998007;28;19914;-82
2021/01/28 14:59:28;;;;;;;;;;;;;;;9.69;31.95;100321.28;5000110;28;19913;-82
2021/01/28 15:02:13;;;;;;;;;;;;;;;9.18;32.44;100307.63;4988233;28;19913;-83
2021/01/28 15:04:57;;;;;;;;;;;;;;;8.51;34.12;100305.94;5013433;28;19913;-83
2021/01/28 15:07:42;;;;;;;;;;;;;;;8.11;35.23;100302.34;4987261;28;19917;-84